createdAt,value
2022-12-03T00:00:12.761Z,5.82
2022-12-03T00:02:41.962Z,5.50
2022-12-03T00:05:11.637Z,6.35
2022-12-03T00:07:41.435Z,5.45
2022-12-03T00:10:10.774Z,6.13
2022-12-03T00:12:39.394Z,6.22
2022-12-03T00:15:11.103Z,6.18
2022-12-03T00:17:40.244Z,6.38
2022-12-03T00:20:10.655Z,6.63
2022-12-03T00:22:40.415Z,5.82
2022-12-03T00:25:10.606Z,6.65
2022-12-03T00:27:38.996Z,6.45
2022-12-03T00:30:09.959Z,5.50
2022-12-03T00:32:38.324Z,5.25
2022-12-03T00:35:09.709Z,6.45
2022-12-03T00:37:38.083Z,5.50
2022-12-03T00:40:10.043Z,5.57
2022-12-03T00:42:38.383Z,5.32
2022-12-03T00:45:08.327Z,7.25
2022-12-03T00:47:36.710Z,5.15
2022-12-03T00:50:06.049Z,5.97
2022-12-03T00:52:34.433Z,6.75
2022-12-03T00:55:02.770Z,7.10
2022-12-03T00:57:32.479Z,6.38
2022-12-03T01:00:00.904Z,5.32
2022-12-03T01:02:29.301Z,5.72
2022-12-03T01:04:57.928Z,7.03
2022-12-03T01:07:26.493Z,5.75
2022-12-03T01:09:54.901Z,6.50
2022-12-03T01:12:23.385Z,5.85
2022-12-03T01:14:53.529Z,6.18
2022-12-03T01:17:22.277Z,5.30
2022-12-03T01:19:52.530Z,7.90
2022-12-03T01:22:20.899Z,6.55
2022-12-03T01:24:49.206Z,7.18
2022-12-03T01:27:17.630Z,10.40
2022-12-03T01:29:46.193Z,6.43
2022-12-03T01:32:19.358Z,6.60
2022-12-03T01:34:49.458Z,5.80
2022-12-03T01:37:19.168Z,7.93
2022-12-03T01:39:48.030Z,7.28
2022-12-03T01:42:21.174Z,8.10
2022-12-03T01:44:59.561Z,6.07
2022-12-03T01:47:33.153Z,7.78
2022-12-03T01:50:05.344Z,7.63
2022-12-03T01:52:39.686Z,6.25
2022-12-03T01:55:14.872Z,6.10
2022-12-03T01:57:46.996Z,5.97
2022-12-03T02:00:17.449Z,6.10
2022-12-03T02:02:56.536Z,7.90
2022-12-03T02:05:27.959Z,6.63
2022-12-03T02:07:57.036Z,6.88
2022-12-03T02:10:29.716Z,6.95
2022-12-03T02:13:03.620Z,5.95
2022-12-03T02:15:32.388Z,7.13
2022-12-03T02:18:02.755Z,6.95
2022-12-03T02:20:34.263Z,5.78
2022-12-03T02:23:11.481Z,5.18
2022-12-03T02:25:41.360Z,6.28
2022-12-03T02:28:10.842Z,5.28
2022-12-03T02:30:39.491Z,6.55
2022-12-03T02:33:07.829Z,6.25
2022-12-03T02:35:38.348Z,7.00
2022-12-03T02:38:14.606Z,4.78
2022-12-03T02:40:46.924Z,6.03
2022-12-03T02:43:16.721Z,6.38
2022-12-03T02:45:47.643Z,6.50
2022-12-03T02:48:20.826Z,6.18
2022-12-03T02:50:53.344Z,4.97
2022-12-03T02:53:27.281Z,5.35
2022-12-03T02:55:59.370Z,5.63
2022-12-03T02:58:30.727Z,6.05
2022-12-03T03:01:01.065Z,5.15
2022-12-03T03:03:32.226Z,7.60
2022-12-03T03:06:02.962Z,5.93
2022-12-03T03:08:32.806Z,5.18
2022-12-03T03:11:03.584Z,5.45
2022-12-03T03:13:33.637Z,7.20
2022-12-03T03:16:04.266Z,5.22
2022-12-03T03:18:33.347Z,6.63
2022-12-03T03:21:02.446Z,5.97
2022-12-03T03:23:30.839Z,6.32
2022-12-03T03:26:04.542Z,6.32
2022-12-03T03:28:35.689Z,6.10
2022-12-03T03:31:06.248Z,6.13
2022-12-03T03:33:35.589Z,5.70
2022-12-03T03:36:04.385Z,6.43
2022-12-03T03:38:33.827Z,6.28
2022-12-03T03:41:05.469Z,4.95
2022-12-03T03:43:35.848Z,4.97
2022-12-03T03:46:06.721Z,5.32
2022-12-03T03:48:36.094Z,5.85
2022-12-03T03:51:09.003Z,5.30
2022-12-03T03:53:38.861Z,4.95
2022-12-03T03:56:09.768Z,6.40
2022-12-03T03:58:38.892Z,6.00
2022-12-03T04:01:07.813Z,5.30
2022-12-03T04:03:36.489Z,6.82
2022-12-03T04:06:05.296Z,5.60
2022-12-03T04:08:33.833Z,5.97
2022-12-03T04:11:19.418Z,6.65
2022-12-03T04:13:49.273Z,7.32
2022-12-03T04:16:17.730Z,5.22
2022-12-03T04:18:45.153Z,6.68
2022-12-03T04:21:33.704Z,6.32
2022-12-03T04:24:02.628Z,6.03
2022-12-03T04:26:48.414Z,6.43
2022-12-03T04:29:18.227Z,7.18
2022-12-03T04:32:03.920Z,8.27
2022-12-03T04:34:49.819Z,5.57
2022-12-03T04:37:18.287Z,7.50
2022-12-03T04:39:46.693Z,5.43
2022-12-03T04:42:15.135Z,7.65
2022-12-03T04:44:44.917Z,5.60
2022-12-03T04:47:16.436Z,5.97
2022-12-03T04:49:47.481Z,7.60
2022-12-03T04:52:18.499Z,6.57
2022-12-03T04:54:47.616Z,6.32
2022-12-03T04:57:16.023Z,6.35
2022-12-03T04:59:45.716Z,4.95
2022-12-03T05:02:14.248Z,6.35
2022-12-03T05:04:42.618Z,6.30
2022-12-03T05:07:10.994Z,6.50
2022-12-03T05:09:39.346Z,6.15
2022-12-03T05:12:08.227Z,7.32
2022-12-03T05:14:36.619Z,6.85
2022-12-03T05:17:06.468Z,7.05
2022-12-03T05:19:52.548Z,7.30
2022-12-03T05:22:21.020Z,7.45
2022-12-03T05:24:49.380Z,6.25
2022-12-03T05:27:23.365Z,6.97
2022-12-03T05:29:52.577Z,6.90
2022-12-03T05:32:22.456Z,7.00
2022-12-03T05:34:51.341Z,6.63
2022-12-03T05:37:19.980Z,6.55
2022-12-03T05:39:48.314Z,5.93
2022-12-03T05:42:34.012Z,5.97
2022-12-03T05:45:02.523Z,7.38
2022-12-03T05:47:32.229Z,7.85
2022-12-03T05:50:00.564Z,6.63
2022-12-03T05:52:28.980Z,7.32
2022-12-03T05:54:57.335Z,6.45
2022-12-03T05:57:25.777Z,5.82
2022-12-03T05:59:54.155Z,8.60
2022-12-03T06:02:22.740Z,7.13
2022-12-03T06:04:52.805Z,6.50
2022-12-03T06:07:21.403Z,6.20
2022-12-03T06:09:49.762Z,6.82
2022-12-03T06:12:18.159Z,6.55
2022-12-03T06:14:46.573Z,6.18
2022-12-03T06:17:15.064Z,6.07
2022-12-03T06:19:43.442Z,8.15
2022-12-03T06:22:13.217Z,8.52
2022-12-03T06:24:41.614Z,9.13
2022-12-03T06:27:09.975Z,7.40
2022-12-03T06:29:38.548Z,7.43
2022-12-03T06:32:07.873Z,8.38
2022-12-03T06:34:36.493Z,8.20
2022-12-03T06:37:04.907Z,7.28
2022-12-03T06:39:34.662Z,8.75
2022-12-03T06:42:03.067Z,7.22
2022-12-03T06:44:31.442Z,7.13
2022-12-03T06:46:59.862Z,7.03
2022-12-03T06:49:28.328Z,8.27
2022-12-03T06:51:57.067Z,6.00
2022-12-03T06:54:25.535Z,8.15
2022-12-03T06:56:55.224Z,7.28
2022-12-03T06:59:23.625Z,9.27
2022-12-03T07:01:52.034Z,7.95
2022-12-03T07:04:20.493Z,7.35
2022-12-03T07:06:48.869Z,8.60
2022-12-03T07:09:17.724Z,11.30
2022-12-03T07:11:46.117Z,7.18
2022-12-03T07:14:16.017Z,9.38
2022-12-03T07:16:44.470Z,9.43
2022-12-03T07:19:13.056Z,8.65
2022-12-03T07:21:41.483Z,8.68
2022-12-03T07:24:10.235Z,9.25
2022-12-03T07:26:38.656Z,8.23
2022-12-03T07:29:07.044Z,9.10
2022-12-03T07:31:36.857Z,9.23
2022-12-03T07:34:05.343Z,8.15
2022-12-03T07:36:33.731Z,8.80
2022-12-03T07:39:02.056Z,8.63
2022-12-03T07:41:30.439Z,9.48
2022-12-03T07:43:58.815Z,10.32
2022-12-03T07:46:27.321Z,8.88
2022-12-03T07:48:57.078Z,9.18
2022-12-03T07:51:31.824Z,8.75
2022-12-03T07:54:00.709Z,9.20
2022-12-03T07:56:29.059Z,8.68
2022-12-03T07:58:57.503Z,7.95
2022-12-03T08:01:25.948Z,9.60
2022-12-03T08:03:54.402Z,7.55
2022-12-03T08:06:24.067Z,7.70
2022-12-03T08:08:52.471Z,8.55
2022-12-03T08:11:20.872Z,8.68
2022-12-03T08:13:49.387Z,8.93
2022-12-03T08:16:21.164Z,7.40
2022-12-03T08:18:51.408Z,8.45
2022-12-03T08:21:22.163Z,8.75
2022-12-03T08:23:51.914Z,7.82
2022-12-03T08:26:25.848Z,7.38
2022-12-03T08:28:55.007Z,8.25
2022-12-03T08:31:32.436Z,8.93
2022-12-03T08:34:17.788Z,9.27
2022-12-03T08:36:47.287Z,8.90
2022-12-03T08:39:34.958Z,9.32
2022-12-03T08:42:30.726Z,9.32
2022-12-03T08:45:21.672Z,10.57
2022-12-03T08:47:50.026Z,10.30
2022-12-03T08:50:28.668Z,9.35
2022-12-03T08:53:09.795Z,11.70
2022-12-03T08:55:46.570Z,9.93
2022-12-03T08:58:23.243Z,10.10
2022-12-03T09:00:58.026Z,9.30
2022-12-03T09:03:27.548Z,9.57
2022-12-03T09:05:55.957Z,9.02
2022-12-03T09:08:24.295Z,10.85
2022-12-03T09:10:54.073Z,10.25
2022-12-03T09:13:22.461Z,9.80
2022-12-03T09:15:50.817Z,8.52
2022-12-03T09:18:19.258Z,9.48
2022-12-03T09:20:47.654Z,10.63
2022-12-03T09:23:16.000Z,9.75
2022-12-03T09:25:44.429Z,10.55
2022-12-03T09:28:14.170Z,10.13
2022-12-03T09:30:42.776Z,10.23
2022-12-03T09:33:11.159Z,11.00
2022-12-03T09:35:39.550Z,10.15
2022-12-03T09:38:08.031Z,10.35
2022-12-03T09:40:36.538Z,10.43
2022-12-03T09:43:05.628Z,8.50
2022-12-03T09:45:35.673Z,9.77
2022-12-03T09:48:04.845Z,9.00
2022-12-03T09:50:34.019Z,9.23
2022-12-03T09:53:04.718Z,9.73
2022-12-03T09:55:33.678Z,9.93
2022-12-03T09:58:02.128Z,9.25
2022-12-03T10:00:31.833Z,9.52
2022-12-03T10:03:07.301Z,10.20
2022-12-03T10:05:36.360Z,8.40
2022-12-03T10:08:08.471Z,9.60
2022-12-03T10:10:37.664Z,8.25
2022-12-03T10:13:07.030Z,9.30
2022-12-03T10:15:35.536Z,10.07
2022-12-03T10:18:23.661Z,8.32
2022-12-03T10:20:53.766Z,9.70
2022-12-03T10:23:24.651Z,9.05
2022-12-03T10:25:56.236Z,8.85
2022-12-03T10:28:34.739Z,10.00
2022-12-03T10:31:05.929Z,10.07
2022-12-03T10:33:37.934Z,8.93
2022-12-03T10:36:23.329Z,8.50
2022-12-03T10:39:15.659Z,10.60
2022-12-03T10:41:45.874Z,9.45
2022-12-03T10:44:20.022Z,9.15
2022-12-03T10:47:06.900Z,10.30
2022-12-03T10:49:37.176Z,10.30
2022-12-03T10:52:06.404Z,9.90
2022-12-03T10:54:36.495Z,8.98
2022-12-03T10:57:05.051Z,10.60
2022-12-03T10:59:35.263Z,10.30
2022-12-03T11:02:09.239Z,8.00
2022-12-03T11:04:39.024Z,8.93
2022-12-03T11:07:15.826Z,10.32
2022-12-03T11:09:46.604Z,11.18
2022-12-03T11:12:21.803Z,9.70
2022-12-03T11:15:08.879Z,9.82
2022-12-03T11:17:48.184Z,11.50
2022-12-03T11:21:11.321Z,12.57
2022-12-03T11:24:28.757Z,12.85
2022-12-03T11:27:27.204Z,14.63
2022-12-03T11:30:01.266Z,12.35
2022-12-03T11:33:22.784Z,14.40
2022-12-03T11:36:31.769Z,15.02
2022-12-03T11:39:10.222Z,14.57
2022-12-03T11:41:38.593Z,13.82
2022-12-03T11:44:33.736Z,15.07
2022-12-03T11:47:15.177Z,12.93
2022-12-03T11:49:50.036Z,13.73
2022-12-03T11:52:30.199Z,15.32
2022-12-03T11:55:04.414Z,12.95
2022-12-03T11:57:38.171Z,17.00
2022-12-03T12:00:21.994Z,15.98
2022-12-03T12:02:51.745Z,17.58
2022-12-03T12:05:28.744Z,15.45
2022-12-03T12:07:58.737Z,14.07
2022-12-03T12:10:45.561Z,13.60
2022-12-03T12:13:54.662Z,15.18
2022-12-03T12:16:51.451Z,12.80
2022-12-03T12:19:32.769Z,13.13
2022-12-03T12:22:30.611Z,13.27
2022-12-03T12:25:02.399Z,15.05
2022-12-03T12:27:39.423Z,14.00
2022-12-03T12:30:14.056Z,11.65
2022-12-03T12:32:47.370Z,15.15
2022-12-03T12:35:20.630Z,11.82
2022-12-03T12:37:58.935Z,12.63
2022-12-03T12:40:34.069Z,12.18
2022-12-03T12:43:11.799Z,12.82
2022-12-03T12:45:44.304Z,13.45
2022-12-03T12:48:22.761Z,13.50
2022-12-03T12:50:58.413Z,13.88
2022-12-03T12:53:29.611Z,15.10
2022-12-03T12:56:01.826Z,13.60
2022-12-03T12:58:34.113Z,13.05
2022-12-03T13:01:08.812Z,12.55
2022-12-03T13:03:40.657Z,15.38
2022-12-03T13:06:16.758Z,13.63
2022-12-03T13:08:49.833Z,13.93
2022-12-03T13:11:37.072Z,14.40
2022-12-03T13:14:17.337Z,14.45
2022-12-03T13:16:45.965Z,14.32
2022-12-03T13:19:23.756Z,14.77
2022-12-03T13:21:53.955Z,12.15
2022-12-03T13:24:33.935Z,12.55
2022-12-03T13:27:22.989Z,13.60
2022-12-03T13:29:56.724Z,14.63
2022-12-03T13:32:31.024Z,21.40
2022-12-03T13:35:07.593Z,18.13
2022-12-03T13:37:36.026Z,15.35
2022-12-03T13:40:21.198Z,16.27
2022-12-03T13:42:52.618Z,15.07
2022-12-03T13:45:35.139Z,14.38
2022-12-03T13:48:07.947Z,15.68
2022-12-03T13:50:38.622Z,15.88
2022-12-03T13:53:20.707Z,15.90
2022-12-03T13:55:51.724Z,17.15
2022-12-03T13:58:21.490Z,17.90
2022-12-03T14:00:49.980Z,16.42
2022-12-03T14:03:18.783Z,15.35
2022-12-03T14:05:47.155Z,16.45
2022-12-03T14:08:15.577Z,15.05
2022-12-03T14:10:44.101Z,12.73
2022-12-03T14:13:12.476Z,15.40
2022-12-03T14:15:42.224Z,17.02
2022-12-03T14:18:10.634Z,18.05
2022-12-03T14:20:38.988Z,15.38
2022-12-03T14:23:07.389Z,16.92
2022-12-03T14:25:35.807Z,16.00
2022-12-03T14:28:08.615Z,16.50
2022-12-03T14:30:37.208Z,17.33
2022-12-03T14:33:07.017Z,17.17
2022-12-03T14:35:35.468Z,18.42
2022-12-03T14:38:03.843Z,15.82
2022-12-03T14:40:32.372Z,15.65
2022-12-03T14:43:00.785Z,20.02
2022-12-03T14:45:30.195Z,19.30
2022-12-03T14:47:58.600Z,15.63
2022-12-03T14:50:28.383Z,19.02
2022-12-03T14:52:56.852Z,20.98
2022-12-03T14:55:25.216Z,18.65
2022-12-03T14:57:53.611Z,23.00
2022-12-03T15:00:22.947Z,22.23
2022-12-03T15:02:51.495Z,19.50
2022-12-03T15:05:28.038Z,18.88
2022-12-03T15:07:58.563Z,19.95
2022-12-03T15:10:27.297Z,19.10
2022-12-03T15:12:55.730Z,16.85
2022-12-03T15:15:24.146Z,17.73
2022-12-03T15:17:52.523Z,19.98
2022-12-03T15:20:20.889Z,20.20
2022-12-03T15:22:49.608Z,17.83
2022-12-03T15:25:24.442Z,16.52
2022-12-03T15:27:53.227Z,18.27
2022-12-03T15:30:21.755Z,17.80
2022-12-03T15:32:50.601Z,17.08
2022-12-03T15:35:19.374Z,19.00
2022-12-03T15:37:47.862Z,18.17
2022-12-03T15:40:19.258Z,16.35
2022-12-03T15:42:47.742Z,18.35
2022-12-03T15:45:16.265Z,18.05
2022-12-03T15:47:45.233Z,17.23
2022-12-03T15:50:14.811Z,18.20
2022-12-03T15:52:44.698Z,20.55
2022-12-03T15:55:14.288Z,29.08
2022-12-03T15:57:44.670Z,16.00
2022-12-03T16:00:16.069Z,15.52
2022-12-03T16:02:52.221Z,15.13
2022-12-03T16:05:22.723Z,16.92
2022-12-03T16:07:51.756Z,17.33
2022-12-03T16:10:21.968Z,15.95
2022-12-03T16:12:52.662Z,15.45
2022-12-03T16:15:26.664Z,16.08
2022-12-03T16:17:56.090Z,16.25
2022-12-03T16:20:24.493Z,16.02
2022-12-03T16:22:53.302Z,16.50
2022-12-03T16:25:22.071Z,18.17
2022-12-03T16:27:53.707Z,18.98
2022-12-03T16:30:22.570Z,15.13
2022-12-03T16:32:51.222Z,17.70
2022-12-03T16:35:21.548Z,14.63
2022-12-03T16:37:50.598Z,15.35
2022-12-03T16:40:19.671Z,14.95
2022-12-03T16:42:49.142Z,16.92
2022-12-03T16:45:51.603Z,19.33
2022-12-03T16:48:21.276Z,15.88
2022-12-03T16:50:50.050Z,17.50
2022-12-03T16:53:18.824Z,16.10
2022-12-03T16:55:48.141Z,17.05
2022-12-03T16:58:18.886Z,15.48
2022-12-03T17:00:49.575Z,16.85
2022-12-03T17:03:19.118Z,17.02
2022-12-03T17:05:49.319Z,26.50
2022-12-03T17:08:19.372Z,16.67
2022-12-03T17:10:48.308Z,17.42
2022-12-03T17:13:17.454Z,14.77
2022-12-03T17:15:46.473Z,15.73
2022-12-03T17:18:17.142Z,15.10
2022-12-03T17:20:46.327Z,15.57
2022-12-03T17:23:14.903Z,15.75
2022-12-03T17:25:45.710Z,15.73
2022-12-03T17:28:15.368Z,16.40
2022-12-03T17:30:44.342Z,18.45
2022-12-03T17:33:14.935Z,17.15
2022-12-03T17:35:46.249Z,15.75
2022-12-03T17:38:15.954Z,19.23
2022-12-03T17:40:45.239Z,17.88
2022-12-03T17:43:13.637Z,17.48
2022-12-03T17:45:43.725Z,18.90
2022-12-03T17:48:13.179Z,18.23
2022-12-03T17:50:42.853Z,22.13
2022-12-03T17:53:13.212Z,19.10
2022-12-03T17:55:44.984Z,19.27
2022-12-03T17:58:14.590Z,17.42
2022-12-03T18:00:44.535Z,19.20
2022-12-03T18:03:13.683Z,17.38
2022-12-03T18:05:42.417Z,17.65
2022-12-03T18:08:12.227Z,18.15
2022-12-03T18:10:41.250Z,16.63
2022-12-03T18:13:10.222Z,16.30
2022-12-03T18:15:39.408Z,16.75
2022-12-03T18:18:08.676Z,18.73
2022-12-03T18:20:37.650Z,18.25
2022-12-03T18:23:07.224Z,17.92
2022-12-03T18:25:38.726Z,16.58
2022-12-03T18:28:07.954Z,18.35
2022-12-03T18:30:37.804Z,18.65
2022-12-03T18:33:08.815Z,18.27
2022-12-03T18:35:38.737Z,17.60
2022-12-03T18:38:07.929Z,16.30
2022-12-03T18:40:41.307Z,16.60
2022-12-03T18:43:14.979Z,16.95
2022-12-03T18:45:44.953Z,16.23
2022-12-03T18:48:20.648Z,15.80
2022-12-03T18:50:50.034Z,16.27
2022-12-03T18:53:20.734Z,13.20
2022-12-03T18:55:51.901Z,16.23
2022-12-03T18:58:21.453Z,15.95
2022-12-03T19:00:51.164Z,14.07
2022-12-03T19:03:21.027Z,15.07
2022-12-03T19:05:50.585Z,17.33
2022-12-03T19:08:19.521Z,17.15
2022-12-03T19:10:59.903Z,17.17
2022-12-03T19:13:30.133Z,15.68
2022-12-03T19:16:03.106Z,14.73
2022-12-03T19:18:34.297Z,12.70
2022-12-03T19:21:10.894Z,13.18
2022-12-03T19:23:47.308Z,16.95
2022-12-03T19:26:30.792Z,15.95
2022-12-03T19:29:01.277Z,16.02
2022-12-03T19:31:33.725Z,17.17
2022-12-03T19:34:04.653Z,15.85
2022-12-03T19:36:36.294Z,14.90
2022-12-03T19:39:05.905Z,16.20
2022-12-03T19:41:38.715Z,16.30
2022-12-03T19:44:11.127Z,16.50
2022-12-03T19:46:41.080Z,17.83
2022-12-03T19:49:11.792Z,16.20
2022-12-03T19:51:41.850Z,21.25
2022-12-03T19:54:15.327Z,17.60
2022-12-03T19:56:47.833Z,21.27
2022-12-03T19:59:19.870Z,16.40
2022-12-03T20:01:52.130Z,18.13
2022-12-03T20:04:22.541Z,17.27
2022-12-03T20:06:51.935Z,19.52
2022-12-03T20:09:23.048Z,20.02
2022-12-03T20:11:54.759Z,16.83
2022-12-03T20:14:25.229Z,18.17
2022-12-03T20:16:55.074Z,19.38
2022-12-03T20:19:24.939Z,17.30
2022-12-03T20:22:00.705Z,20.25
2022-12-03T20:24:33.772Z,20.15
2022-12-03T20:27:06.687Z,20.35
2022-12-03T20:29:37.300Z,18.27
2022-12-03T20:32:08.566Z,21.52
2022-12-03T20:34:39.212Z,19.83
2022-12-03T20:37:10.009Z,19.50
2022-12-03T20:39:40.160Z,18.73
2022-12-03T20:42:12.501Z,18.20
2022-12-03T20:44:42.274Z,19.73
2022-12-03T20:47:16.639Z,18.33
2022-12-03T20:49:45.865Z,16.63
2022-12-03T20:52:15.933Z,20.42
2022-12-03T20:54:46.592Z,19.60
2022-12-03T20:57:20.093Z,20.30
2022-12-03T20:59:49.012Z,18.92
2022-12-03T21:02:19.062Z,18.42
2022-12-03T21:04:48.523Z,17.67
2022-12-03T21:07:20.058Z,17.52
2022-12-03T21:09:49.002Z,19.80
2022-12-03T21:12:20.566Z,19.95
2022-12-03T21:14:50.209Z,17.27
2022-12-03T21:17:21.094Z,18.33
2022-12-03T21:19:50.992Z,18.10
2022-12-03T21:22:20.126Z,17.88
2022-12-03T21:24:49.633Z,20.02
2022-12-03T21:27:21.745Z,17.58
2022-12-03T21:29:51.908Z,18.35
2022-12-03T21:32:21.007Z,16.05
2022-12-03T21:34:49.582Z,18.23
2022-12-03T21:37:18.587Z,17.90
2022-12-03T21:39:47.205Z,17.25
2022-12-03T21:42:18.775Z,16.60
2022-12-03T21:45:06.963Z,15.43
2022-12-03T21:47:37.496Z,17.27
2022-12-03T21:50:09.816Z,16.95
2022-12-03T21:52:39.835Z,18.13
2022-12-03T21:55:09.443Z,17.45
2022-12-03T21:57:38.394Z,18.45
2022-12-03T22:00:12.215Z,15.38
2022-12-03T22:02:41.841Z,18.38
2022-12-03T22:05:12.402Z,16.77
2022-12-03T22:07:43.557Z,14.90
2022-12-03T22:10:13.740Z,16.35
2022-12-03T22:12:42.296Z,16.33
2022-12-03T22:15:18.459Z,16.30
2022-12-03T22:17:47.745Z,16.17
2022-12-03T22:20:16.475Z,16.27
2022-12-03T22:22:44.879Z,16.65
2022-12-03T22:25:13.388Z,41.80
2022-12-03T22:27:41.788Z,18.30
2022-12-03T22:30:12.597Z,15.70
2022-12-03T22:32:41.018Z,14.60
2022-12-03T22:35:10.521Z,16.33
2022-12-03T22:37:38.887Z,17.52
2022-12-03T22:40:09.028Z,18.40
2022-12-03T22:42:37.413Z,17.73
2022-12-03T22:45:07.435Z,16.98
2022-12-03T22:47:37.152Z,19.27
2022-12-03T22:50:06.726Z,18.30
2022-12-03T22:52:35.104Z,19.70
2022-12-03T22:55:03.491Z,18.17
2022-12-03T22:57:32.605Z,17.17
2022-12-03T23:00:01.000Z,17.35
2022-12-03T23:02:29.463Z,16.40
2022-12-03T23:04:59.237Z,18.25
2022-12-03T23:07:27.711Z,15.93
2022-12-03T23:09:56.383Z,23.50
2022-12-03T23:12:24.892Z,18.02
2022-12-03T23:14:55.189Z,16.38
2022-12-03T23:17:23.600Z,19.33
2022-12-03T23:19:52.089Z,16.60
2022-12-03T23:22:22.078Z,19.65
2022-12-03T23:24:50.446Z,20.30
2022-12-03T23:27:18.848Z,16.75
2022-12-03T23:29:47.224Z,16.73
2022-12-03T23:32:15.695Z,17.42
2022-12-03T23:34:44.191Z,17.25
2022-12-03T23:37:12.614Z,17.40
2022-12-03T23:39:42.524Z,19.35
2022-12-03T23:42:11.007Z,17.92
2022-12-03T23:44:39.384Z,20.27
2022-12-03T23:47:07.749Z,18.67
2022-12-03T23:49:36.315Z,19.90
2022-12-03T23:52:05.168Z,19.35
2022-12-03T23:54:33.572Z,17.90
2022-12-03T23:57:03.389Z,19.42
2022-12-03T23:59:32.120Z,20.52
